Alva, Wyoming
Current Conditions -  °F | °C
As of 5:35 AM on Saturday 25 Oct 2014 (Local Time) from KW43 Reporting Station
Clear Clear  
Wind Chill:   Ceiling: Unl
Heat Index:   Visibility: 10mi
Dew Point: -1°   Wind: 5mph
Humidity: 65%   Direction: 180°S
Pressure: 30.14"   Gusts: NA
Location:  44.69°N, 104.44°W
Report Text: KW43 251135Z AUTO 18004KT 10SM CLR 05/M01 A3014 RMK AO2
Loading
Personal Weather Stations






























Interactive Weather Map
Tropical Storm Tracking
New forecast layout! Learn more

10-Day Weather Forecast

Advertisements
Track Severe Weather on mobile